sensor_id;sensor_type;location;lat;lon;timestamp;P1;durP1;ratioP1;P2;durP2;ratioP2
41623;SDS011;27319;50.306;18.926;2023-04-03T00:02:54;9.07;;;6.32;;
41623;SDS011;27319;50.306;18.926;2023-04-03T00:05:55;9.50;;;6.93;;
41623;SDS011;27319;50.306;18.926;2023-04-03T00:09:56;8.73;;;6.25;;
41623;SDS011;27319;50.306;18.926;2023-04-03T00:13:57;11.98;;;7.07;;
41623;SDS011;27319;50.306;18.926;2023-04-03T00:17:57;10.60;;;6.95;;
41623;SDS011;27319;50.306;18.926;2023-04-03T00:21:58;8.38;;;6.38;;
41623;SDS011;27319;50.306;18.926;2023-04-03T00:25:59;9.77;;;6.72;;
41623;SDS011;27319;50.306;18.926;2023-04-03T00:30:00;10.23;;;6.93;;
41623;SDS011;27319;50.306;18.926;2023-04-03T00:34:01;10.35;;;7.00;;
41623;SDS011;27319;50.306;18.926;2023-04-03T00:38:02;12.77;;;7.20;;
41623;SDS011;27319;50.306;18.926;2023-04-03T00:41:02;10.93;;;7.40;;
41623;SDS011;27319;50.306;18.926;2023-04-03T00:52:17;10.30;;;8.23;;
41623;SDS011;27319;50.306;18.926;2023-04-03T00:56:18;15.77;;;9.52;;
41623;SDS011;27319;50.306;18.926;2023-04-03T01:03:28;13.63;;;9.85;;
41623;SDS011;27319;50.306;18.926;2023-04-03T01:06:33;12.77;;;8.93;;
41623;SDS011;27319;50.306;18.926;2023-04-03T01:10:32;16.75;;;10.82;;
41623;SDS011;27319;50.306;18.926;2023-04-03T01:14:33;15.35;;;10.50;;
41623;SDS011;27319;50.306;18.926;2023-04-03T01:18:37;14.27;;;10.40;;
41623;SDS011;27319;50.306;18.926;2023-04-03T01:22:17;17.60;;;10.25;;
41623;SDS011;27319;50.306;18.926;2023-04-03T01:29:56;13.63;;;8.93;;
41623;SDS011;27319;50.306;18.926;2023-04-03T01:33:57;13.30;;;9.15;;
41623;SDS011;27319;50.306;18.926;2023-04-03T01:37:58;13.50;;;8.98;;
41623;SDS011;27319;50.306;18.926;2023-04-03T01:41:58;16.20;;;8.73;;
41623;SDS011;27319;50.306;18.926;2023-04-03T01:45:59;11.73;;;8.27;;
41623;SDS011;27319;50.306;18.926;2023-04-03T01:50:00;11.05;;;7.63;;
41623;SDS011;27319;50.306;18.926;2023-04-03T01:54:01;11.65;;;7.03;;
41623;SDS011;27319;50.306;18.926;2023-04-03T01:58:02;9.13;;;6.57;;
41623;SDS011;27319;50.306;18.926;2023-04-03T02:02:03;9.70;;;6.57;;
41623;SDS011;27319;50.306;18.926;2023-04-03T02:06:03;11.95;;;7.15;;
41623;SDS011;27319;50.306;18.926;2023-04-03T02:10:04;11.05;;;6.63;;
41623;SDS011;27319;50.306;18.926;2023-04-03T02:14:05;11.07;;;6.70;;
41623;SDS011;27319;50.306;18.926;2023-04-03T02:18:06;13.65;;;6.72;;
41623;SDS011;27319;50.306;18.926;2023-04-03T02:22:07;11.40;;;7.25;;
41623;SDS011;27319;50.306;18.926;2023-04-03T02:26:09;11.75;;;7.93;;
41623;SDS011;27319;50.306;18.926;2023-04-03T02:30:09;12.95;;;7.38;;
41623;SDS011;27319;50.306;18.926;2023-04-03T02:34:10;12.48;;;7.45;;
41623;SDS011;27319;50.306;18.926;2023-04-03T02:38:10;13.35;;;7.90;;
41623;SDS011;27319;50.306;18.926;2023-04-03T02:42:11;13.40;;;7.70;;
41623;SDS011;27319;50.306;18.926;2023-04-03T02:46:12;13.73;;;7.07;;
41623;SDS011;27319;50.306;18.926;2023-04-03T02:50:13;11.95;;;7.07;;
41623;SDS011;27319;50.306;18.926;2023-04-03T02:54:14;12.57;;;7.35;;
41623;SDS011;27319;50.306;18.926;2023-04-03T02:58:15;9.90;;;6.15;;
41623;SDS011;27319;50.306;18.926;2023-04-03T03:02:15;10.45;;;6.10;;
41623;SDS011;27319;50.306;18.926;2023-04-03T03:06:17;11.32;;;5.88;;
41623;SDS011;27319;50.306;18.926;2023-04-03T03:10:17;10.77;;;6.05;;
41623;SDS011;27319;50.306;18.926;2023-04-03T03:14:18;7.43;;;4.93;;
41623;SDS011;27319;50.306;18.926;2023-04-03T03:18:19;9.45;;;5.22;;
41623;SDS011;27319;50.306;18.926;2023-04-03T03:22:20;11.85;;;4.50;;
41623;SDS011;27319;50.306;18.926;2023-04-03T03:26:20;9.95;;;4.53;;
41623;SDS011;27319;50.306;18.926;2023-04-03T03:30:21;9.02;;;5.82;;
41623;SDS011;27319;50.306;18.926;2023-04-03T03:34:22;10.50;;;5.95;;
41623;SDS011;27319;50.306;18.926;2023-04-03T03:38:23;12.75;;;4.60;;
41623;SDS011;27319;50.306;18.926;2023-04-03T03:42:24;12.02;;;4.80;;
41623;SDS011;27319;50.306;18.926;2023-04-03T03:46:25;9.18;;;4.20;;
41623;SDS011;27319;50.306;18.926;2023-04-03T03:50:25;10.65;;;4.57;;
41623;SDS011;27319;50.306;18.926;2023-04-03T03:54:26;10.35;;;5.20;;
41623;SDS011;27319;50.306;18.926;2023-04-03T03:58:27;8.98;;;4.80;;
41623;SDS011;27319;50.306;18.926;2023-04-03T04:02:28;11.43;;;4.90;;
41623;SDS011;27319;50.306;18.926;2023-04-03T04:05:29;8.38;;;4.63;;
41623;SDS011;27319;50.306;18.926;2023-04-03T04:09:29;10.65;;;5.30;;
41623;SDS011;27319;50.306;18.926;2023-04-03T04:13:30;9.32;;;4.63;;
41623;SDS011;27319;50.306;18.926;2023-04-03T04:17:31;9.65;;;4.25;;
41623;SDS011;27319;50.306;18.926;2023-04-03T04:21:32;11.57;;;4.75;;
41623;SDS011;27319;50.306;18.926;2023-04-03T04:25:33;9.30;;;4.97;;
41623;SDS011;27319;50.306;18.926;2023-04-03T04:29:33;10.38;;;4.75;;
41623;SDS011;27319;50.306;18.926;2023-04-03T04:33:34;9.52;;;4.60;;
41623;SDS011;27319;50.306;18.926;2023-04-03T04:37:35;7.32;;;4.03;;
41623;SDS011;27319;50.306;18.926;2023-04-03T04:41:35;10.73;;;4.57;;
41623;SDS011;27319;50.306;18.926;2023-04-03T04:45:36;8.85;;;4.43;;
41623;SDS011;27319;50.306;18.926;2023-04-03T04:49:46;9.80;;;4.88;;
41623;SDS011;27319;50.306;18.926;2023-04-03T04:53:47;9.45;;;4.55;;
41623;SDS011;27319;50.306;18.926;2023-04-03T04:57:48;9.88;;;4.68;;
41623;SDS011;27319;50.306;18.926;2023-04-03T05:01:48;8.30;;;4.50;;
41623;SDS011;27319;50.306;18.926;2023-04-03T05:04:49;9.27;;;4.78;;
41623;SDS011;27319;50.306;18.926;2023-04-03T05:07:52;8.52;;;4.15;;
41623;SDS011;27319;50.306;18.926;2023-04-03T05:11:08;11.35;;;4.75;;
41623;SDS011;27319;50.306;18.926;2023-04-03T05:15:09;9.00;;;4.50;;
41623;SDS011;27319;50.306;18.926;2023-04-03T05:19:10;13.13;;;5.63;;
41623;SDS011;27319;50.306;18.926;2023-04-03T05:23:11;12.38;;;5.10;;
41623;SDS011;27319;50.306;18.926;2023-04-03T05:27:12;14.10;;;5.40;;
41623;SDS011;27319;50.306;18.926;2023-04-03T05:31:13;14.07;;;4.82;;
41623;SDS011;27319;50.306;18.926;2023-04-03T05:35:15;13.00;;;4.75;;
41623;SDS011;27319;50.306;18.926;2023-04-03T05:39:16;10.52;;;4.93;;
41623;SDS011;27319;50.306;18.926;2023-04-03T05:43:17;11.63;;;5.22;;
41623;SDS011;27319;50.306;18.926;2023-04-03T05:47:18;14.27;;;5.38;;
41623;SDS011;27319;50.306;18.926;2023-04-03T05:51:20;14.45;;;5.47;;
41623;SDS011;27319;50.306;18.926;2023-04-03T05:55:20;11.55;;;5.13;;
41623;SDS011;27319;50.306;18.926;2023-04-03T05:58:20;13.13;;;6.40;;
41623;SDS011;27319;50.306;18.926;2023-04-03T06:01:21;17.25;;;5.75;;
41623;SDS011;27319;50.306;18.926;2023-04-03T06:04:23;9.90;;;6.03;;
41623;SDS011;27319;50.306;18.926;2023-04-03T06:08:24;10.70;;;5.28;;
41623;SDS011;27319;50.306;18.926;2023-04-03T06:12:25;10.75;;;6.25;;
41623;SDS011;27319;50.306;18.926;2023-04-03T06:16:26;10.48;;;5.53;;
41623;SDS011;27319;50.306;18.926;2023-04-03T06:20:27;14.43;;;5.05;;
41623;SDS011;27319;50.306;18.926;2023-04-03T06:24:27;12.88;;;5.57;;
41623;SDS011;27319;50.306;18.926;2023-04-03T06:27:28;11.07;;;4.68;;
41623;SDS011;27319;50.306;18.926;2023-04-03T06:30:29;12.13;;;5.97;;
41623;SDS011;27319;50.306;18.926;2023-04-03T06:33:30;10.45;;;5.47;;
41623;SDS011;27319;50.306;18.926;2023-04-03T06:36:32;16.50;;;4.88;;
41623;SDS011;27319;50.306;18.926;2023-04-03T06:39:33;8.88;;;5.22;;
41623;SDS011;27319;50.306;18.926;2023-04-03T06:43:34;14.95;;;5.38;;
41623;SDS011;27319;50.306;18.926;2023-04-03T06:47:34;13.95;;;6.47;;
41623;SDS011;27319;50.306;18.926;2023-04-03T06:51:36;12.45;;;5.30;;
41623;SDS011;27319;50.306;18.926;2023-04-03T06:55:36;9.40;;;5.18;;
41623;SDS011;27319;50.306;18.926;2023-04-03T06:59:37;15.07;;;5.20;;
41623;SDS011;27319;50.306;18.926;2023-04-03T07:03:38;10.38;;;5.68;;
41623;SDS011;27319;50.306;18.926;2023-04-03T07:07:39;10.77;;;4.93;;
41623;SDS011;27319;50.306;18.926;2023-04-03T07:11:40;10.10;;;4.85;;
41623;SDS011;27319;50.306;18.926;2023-04-03T07:15:41;11.25;;;5.50;;
41623;SDS011;27319;50.306;18.926;2023-04-03T07:19:41;15.23;;;6.30;;
41623;SDS011;27319;50.306;18.926;2023-04-03T07:23:42;10.75;;;5.65;;
41623;SDS011;27319;50.306;18.926;2023-04-03T07:27:43;10.93;;;5.63;;
41623;SDS011;27319;50.306;18.926;2023-04-03T07:31:44;9.55;;;5.10;;
41623;SDS011;27319;50.306;18.926;2023-04-03T07:35:45;12.07;;;5.53;;
41623;SDS011;27319;50.306;18.926;2023-04-03T07:39:46;11.68;;;5.07;;
41623;SDS011;27319;50.306;18.926;2023-04-03T07:43:47;11.07;;;4.18;;
41623;SDS011;27319;50.306;18.926;2023-04-03T07:47:48;10.15;;;4.65;;
41623;SDS011;27319;50.306;18.926;2023-04-03T07:51:49;13.63;;;5.25;;
41623;SDS011;27319;50.306;18.926;2023-04-03T07:55:49;11.23;;;4.53;;
41623;SDS011;27319;50.306;18.926;2023-04-03T07:59:50;8.05;;;4.50;;
41623;SDS011;27319;50.306;18.926;2023-04-03T08:03:51;8.45;;;4.75;;
41623;SDS011;27319;50.306;18.926;2023-04-03T08:07:52;10.00;;;4.78;;
41623;SDS011;27319;50.306;18.926;2023-04-03T08:11:53;11.18;;;3.42;;
41623;SDS011;27319;50.306;18.926;2023-04-03T08:15:54;10.55;;;3.90;;
41623;SDS011;27319;50.306;18.926;2023-04-03T08:19:57;6.28;;;3.72;;
41623;SDS011;27319;50.306;18.926;2023-04-03T08:23:58;7.95;;;3.90;;
41623;SDS011;27319;50.306;18.926;2023-04-03T08:27:59;7.57;;;3.25;;
41623;SDS011;27319;50.306;18.926;2023-04-03T08:32:00;6.20;;;2.85;;
41623;SDS011;27319;50.306;18.926;2023-04-03T08:36:01;9.27;;;3.33;;
41623;SDS011;27319;50.306;18.926;2023-04-03T08:40:02;7.82;;;3.55;;
41623;SDS011;27319;50.306;18.926;2023-04-03T08:51:45;5.28;;;2.08;;
41623;SDS011;27319;50.306;18.926;2023-04-03T08:55:46;4.18;;;2.53;;
41623;SDS011;27319;50.306;18.926;2023-04-03T08:59:46;4.78;;;2.60;;
41623;SDS011;27319;50.306;18.926;2023-04-03T09:03:47;6.97;;;2.60;;
41623;SDS011;27319;50.306;18.926;2023-04-03T09:07:57;4.43;;;2.45;;
41623;SDS011;27319;50.306;18.926;2023-04-03T09:11:57;5.57;;;2.20;;
41623;SDS011;27319;50.306;18.926;2023-04-03T09:16:02;3.63;;;1.95;;
41623;SDS011;27319;50.306;18.926;2023-04-03T09:23:42;5.18;;;2.53;;
41623;SDS011;27319;50.306;18.926;2023-04-03T09:27:38;4.57;;;2.10;;
41623;SDS011;27319;50.306;18.926;2023-04-03T09:31:40;4.80;;;2.67;;
41623;SDS011;27319;50.306;18.926;2023-04-03T09:35:40;5.38;;;1.88;;
41623;SDS011;27319;50.306;18.926;2023-04-03T09:39:51;4.30;;;2.30;;
41623;SDS011;27319;50.306;18.926;2023-04-03T09:43:52;3.45;;;2.35;;
41623;SDS011;27319;50.306;18.926;2023-04-03T09:51:35;4.47;;;2.53;;
41623;SDS011;27319;50.306;18.926;2023-04-03T09:55:41;5.70;;;2.42;;
41623;SDS011;27319;50.306;18.926;2023-04-03T09:59:36;4.68;;;2.40;;
41623;SDS011;27319;50.306;18.926;2023-04-03T10:03:36;5.72;;;2.95;;
41623;SDS011;27319;50.306;18.926;2023-04-03T10:19:00;5.10;;;2.22;;
41623;SDS011;27319;50.306;18.926;2023-04-03T10:29:54;4.32;;;2.50;;
41623;SDS011;27319;50.306;18.926;2023-04-03T10:34:31;6.22;;;2.83;;
41623;SDS011;27319;50.306;18.926;2023-04-03T10:38:23;6.40;;;3.20;;
41623;SDS011;27319;50.306;18.926;2023-04-03T10:42:03;5.30;;;2.90;;
41623;SDS011;27319;50.306;18.926;2023-04-03T10:57:41;6.88;;;3.00;;
41623;SDS011;27319;50.306;18.926;2023-04-03T11:01:42;5.40;;;2.85;;
41623;SDS011;27319;50.306;18.926;2023-04-03T11:05:37;7.05;;;2.85;;
41623;SDS011;27319;50.306;18.926;2023-04-03T11:09:35;7.32;;;3.03;;
41623;SDS011;27319;50.306;18.926;2023-04-03T11:17:31;4.50;;;2.10;;
41623;SDS011;27319;50.306;18.926;2023-04-03T11:21:12;5.70;;;2.00;;
41623;SDS011;27319;50.306;18.926;2023-04-03T11:28:30;3.67;;;2.30;;
41623;SDS011;27319;50.306;18.926;2023-04-03T11:32:42;6.68;;;2.25;;
41623;SDS011;27319;50.306;18.926;2023-04-03T11:40:26;8.48;;;2.75;;
41623;SDS011;27319;50.306;18.926;2023-04-03T11:44:30;3.88;;;2.47;;
41623;SDS011;27319;50.306;18.926;2023-04-03T11:51:50;4.20;;;2.28;;
41623;SDS011;27319;50.306;18.926;2023-04-03T11:59:36;5.15;;;2.53;;
41623;SDS011;27319;50.306;18.926;2023-04-03T12:12:43;4.68;;;2.40;;
41623;SDS011;27319;50.306;18.926;2023-04-03T12:15:57;5.07;;;2.40;;
41623;SDS011;27319;50.306;18.926;2023-04-03T12:19:41;5.72;;;2.80;;
41623;SDS011;27319;50.306;18.926;2023-04-03T12:27:34;5.60;;;2.58;;
41623;SDS011;27319;50.306;18.926;2023-04-03T12:31:37;4.55;;;2.17;;
41623;SDS011;27319;50.306;18.926;2023-04-03T12:35:56;4.30;;;2.47;;
41623;SDS011;27319;50.306;18.926;2023-04-03T12:39:55;4.90;;;2.38;;
41623;SDS011;27319;50.306;18.926;2023-04-03T12:54:45;3.45;;;1.90;;
41623;SDS011;27319;50.306;18.926;2023-04-03T12:58:49;5.68;;;2.38;;
41623;SDS011;27319;50.306;18.926;2023-04-03T13:02:34;4.50;;;2.30;;
41623;SDS011;27319;50.306;18.926;2023-04-03T13:06:39;3.72;;;2.10;;
41623;SDS011;27319;50.306;18.926;2023-04-03T13:10:43;5.47;;;2.10;;
41623;SDS011;27319;50.306;18.926;2023-04-03T13:14:56;3.78;;;2.05;;
41623;SDS011;27319;50.306;18.926;2023-04-03T13:19:15;4.90;;;2.25;;
41623;SDS011;27319;50.306;18.926;2023-04-03T13:23:15;4.13;;;2.33;;
41623;SDS011;27319;50.306;18.926;2023-04-03T13:27:16;8.02;;;2.47;;
41623;SDS011;27319;50.306;18.926;2023-04-03T13:31:22;3.05;;;2.30;;
41623;SDS011;27319;50.306;18.926;2023-04-03T13:35:54;8.43;;;2.60;;
41623;SDS011;27319;50.306;18.926;2023-04-03T13:39:32;5.35;;;2.58;;
41623;SDS011;27319;50.306;18.926;2023-04-03T13:43:33;3.97;;;1.98;;
41623;SDS011;27319;50.306;18.926;2023-04-03T13:47:36;5.43;;;2.15;;
41623;SDS011;27319;50.306;18.926;2023-04-03T13:51:30;5.88;;;2.38;;
41623;SDS011;27319;50.306;18.926;2023-04-03T13:55:32;5.07;;;2.45;;
41623;SDS011;27319;50.306;18.926;2023-04-03T14:02:38;5.38;;;2.28;;
41623;SDS011;27319;50.306;18.926;2023-04-03T14:06:36;4.10;;;2.30;;
41623;SDS011;27319;50.306;18.926;2023-04-03T14:10:37;4.95;;;2.53;;
41623;SDS011;27319;50.306;18.926;2023-04-03T14:14:38;7.78;;;2.22;;
41623;SDS011;27319;50.306;18.926;2023-04-03T14:18:39;5.82;;;2.67;;
41623;SDS011;27319;50.306;18.926;2023-04-03T14:22:39;4.70;;;2.58;;
41623;SDS011;27319;50.306;18.926;2023-04-03T14:26:40;6.18;;;2.72;;
41623;SDS011;27319;50.306;18.926;2023-04-03T14:30:41;4.43;;;2.67;;
41623;SDS011;27319;50.306;18.926;2023-04-03T14:34:41;6.30;;;2.40;;
41623;SDS011;27319;50.306;18.926;2023-04-03T14:38:42;5.15;;;2.67;;
41623;SDS011;27319;50.306;18.926;2023-04-03T14:42:43;5.70;;;2.38;;
41623;SDS011;27319;50.306;18.926;2023-04-03T14:46:44;4.85;;;2.60;;
41623;SDS011;27319;50.306;18.926;2023-04-03T14:50:45;6.88;;;2.80;;
41623;SDS011;27319;50.306;18.926;2023-04-03T14:54:46;7.05;;;2.25;;
41623;SDS011;27319;50.306;18.926;2023-04-03T14:58:46;4.90;;;3.00;;
41623;SDS011;27319;50.306;18.926;2023-04-03T15:02:47;6.43;;;3.17;;
41623;SDS011;27319;50.306;18.926;2023-04-03T15:06:48;6.03;;;3.10;;
41623;SDS011;27319;50.306;18.926;2023-04-03T15:10:49;6.85;;;2.55;;
41623;SDS011;27319;50.306;18.926;2023-04-03T15:14:49;4.63;;;2.85;;
41623;SDS011;27319;50.306;18.926;2023-04-03T15:18:50;5.13;;;2.55;;
41623;SDS011;27319;50.306;18.926;2023-04-03T15:22:51;8.18;;;4.38;;
41623;SDS011;27319;50.306;18.926;2023-04-03T15:26:52;6.38;;;3.00;;
41623;SDS011;27319;50.306;18.926;2023-04-03T15:30:53;8.18;;;2.83;;
41623;SDS011;27319;50.306;18.926;2023-04-03T15:34:54;10.43;;;3.10;;
41623;SDS011;27319;50.306;18.926;2023-04-03T15:38:54;8.30;;;2.90;;
41623;SDS011;27319;50.306;18.926;2023-04-03T15:42:55;7.70;;;3.55;;
41623;SDS011;27319;50.306;18.926;2023-04-03T15:46:57;10.90;;;3.53;;
41623;SDS011;27319;50.306;18.926;2023-04-03T15:50:57;5.47;;;3.05;;
41623;SDS011;27319;50.306;18.926;2023-04-03T15:54:58;5.35;;;2.55;;
41623;SDS011;27319;50.306;18.926;2023-04-03T15:58:58;7.90;;;3.88;;
41623;SDS011;27319;50.306;18.926;2023-04-03T16:03:00;7.40;;;3.30;;
41623;SDS011;27319;50.306;18.926;2023-04-03T16:07:01;7.20;;;2.90;;
41623;SDS011;27319;50.306;18.926;2023-04-03T16:11:01;6.57;;;3.03;;
41623;SDS011;27319;50.306;18.926;2023-04-03T16:15:02;6.53;;;3.60;;
41623;SDS011;27319;50.306;18.926;2023-04-03T16:19:03;16.08;;;6.93;;
41623;SDS011;27319;50.306;18.926;2023-04-03T16:23:04;9.07;;;4.95;;
41623;SDS011;27319;50.306;18.926;2023-04-03T16:27:05;6.10;;;3.42;;
41623;SDS011;27319;50.306;18.926;2023-04-03T16:30:06;6.15;;;3.33;;
41623;SDS011;27319;50.306;18.926;2023-04-03T16:34:07;10.20;;;4.93;;
41623;SDS011;27319;50.306;18.926;2023-04-03T16:38:08;8.18;;;4.20;;
41623;SDS011;27319;50.306;18.926;2023-04-03T16:42:09;6.53;;;2.65;;
41623;SDS011;27319;50.306;18.926;2023-04-03T16:46:09;10.00;;;4.55;;
41623;SDS011;27319;50.306;18.926;2023-04-03T16:50:10;6.03;;;3.70;;
41623;SDS011;27319;50.306;18.926;2023-04-03T16:54:11;7.55;;;3.85;;
41623;SDS011;27319;50.306;18.926;2023-04-03T16:58:12;13.85;;;5.53;;
41623;SDS011;27319;50.306;18.926;2023-04-03T17:02:13;12.05;;;5.78;;
41623;SDS011;27319;50.306;18.926;2023-04-03T17:06:18;12.77;;;4.55;;
41623;SDS011;27319;50.306;18.926;2023-04-03T17:10:15;16.35;;;5.22;;
41623;SDS011;27319;50.306;18.926;2023-04-03T17:14:16;7.38;;;4.10;;
41623;SDS011;27319;50.306;18.926;2023-04-03T17:18:17;9.70;;;5.13;;
41623;SDS011;27319;50.306;18.926;2023-04-03T17:22:18;13.90;;;6.70;;
41623;SDS011;27319;50.306;18.926;2023-04-03T17:26:19;15.40;;;7.78;;
41623;SDS011;27319;50.306;18.926;2023-04-03T17:30:20;17.30;;;7.72;;
41623;SDS011;27319;50.306;18.926;2023-04-03T17:34:21;16.23;;;5.82;;
41623;SDS011;27319;50.306;18.926;2023-04-03T17:38:24;10.85;;;5.60;;
41623;SDS011;27319;50.306;18.926;2023-04-03T17:42:25;8.68;;;4.63;;
41623;SDS011;27319;50.306;18.926;2023-04-03T17:46:25;11.88;;;6.10;;
41623;SDS011;27319;50.306;18.926;2023-04-03T17:50:26;12.65;;;7.03;;
41623;SDS011;27319;50.306;18.926;2023-04-03T17:54:27;15.88;;;7.93;;
41623;SDS011;27319;50.306;18.926;2023-04-03T17:58:28;19.08;;;7.47;;
41623;SDS011;27319;50.306;18.926;2023-04-03T18:02:29;18.02;;;9.20;;
41623;SDS011;27319;50.306;18.926;2023-04-03T18:06:37;16.08;;;7.95;;
41623;SDS011;27319;50.306;18.926;2023-04-03T18:10:36;15.20;;;6.97;;
41623;SDS011;27319;50.306;18.926;2023-04-03T18:14:37;16.98;;;8.02;;
41623;SDS011;27319;50.306;18.926;2023-04-03T18:18:38;20.70;;;8.48;;
41623;SDS011;27319;50.306;18.926;2023-04-03T18:22:39;17.17;;;8.30;;
41623;SDS011;27319;50.306;18.926;2023-04-03T18:26:40;19.67;;;8.93;;
41623;SDS011;27319;50.306;18.926;2023-04-03T18:30:44;25.98;;;9.30;;
41623;SDS011;27319;50.306;18.926;2023-04-03T18:34:45;18.13;;;7.72;;
41623;SDS011;27319;50.306;18.926;2023-04-03T18:38:46;16.35;;;7.40;;
41623;SDS011;27319;50.306;18.926;2023-04-03T18:42:47;14.88;;;6.78;;
41623;SDS011;27319;50.306;18.926;2023-04-03T18:46:48;13.50;;;7.32;;
41623;SDS011;27319;50.306;18.926;2023-04-03T18:50:51;20.35;;;8.95;;
41623;SDS011;27319;50.306;18.926;2023-04-03T18:54:52;12.90;;;7.25;;
41623;SDS011;27319;50.306;18.926;2023-04-03T18:58:53;16.27;;;7.90;;
41623;SDS011;27319;50.306;18.926;2023-04-03T19:02:54;22.58;;;9.07;;
41623;SDS011;27319;50.306;18.926;2023-04-03T19:06:55;18.10;;;8.02;;
41623;SDS011;27319;50.306;18.926;2023-04-03T19:10:56;19.73;;;9.30;;
41623;SDS011;27319;50.306;18.926;2023-04-03T19:14:57;18.60;;;8.45;;
41623;SDS011;27319;50.306;18.926;2023-04-03T19:18:59;15.43;;;7.38;;
41623;SDS011;27319;50.306;18.926;2023-04-03T19:23:00;20.00;;;9.30;;
41623;SDS011;27319;50.306;18.926;2023-04-03T19:27:00;25.65;;;12.27;;
41623;SDS011;27319;50.306;18.926;2023-04-03T19:31:01;16.75;;;7.10;;
41623;SDS011;27319;50.306;18.926;2023-04-03T19:35:03;12.05;;;6.95;;
41623;SDS011;27319;50.306;18.926;2023-04-03T19:39:04;10.95;;;5.72;;
41623;SDS011;27319;50.306;18.926;2023-04-03T19:43:05;18.23;;;7.75;;
41623;SDS011;27319;50.306;18.926;2023-04-03T19:47:06;16.98;;;7.55;;
41623;SDS011;27319;50.306;18.926;2023-04-03T19:51:07;18.65;;;7.82;;
41623;SDS011;27319;50.306;18.926;2023-04-03T19:55:08;20.55;;;7.10;;
41623;SDS011;27319;50.306;18.926;2023-04-03T19:59:09;20.83;;;7.80;;
41623;SDS011;27319;50.306;18.926;2023-04-03T20:03:10;15.63;;;7.45;;
41623;SDS011;27319;50.306;18.926;2023-04-03T20:06:11;20.80;;;10.27;;
41623;SDS011;27319;50.306;18.926;2023-04-03T20:09:12;17.70;;;8.02;;
41623;SDS011;27319;50.306;18.926;2023-04-03T20:13:13;22.58;;;7.90;;
41623;SDS011;27319;50.306;18.926;2023-04-03T20:17:14;17.33;;;7.30;;
41623;SDS011;27319;50.306;18.926;2023-04-03T20:21:15;19.27;;;7.50;;
41623;SDS011;27319;50.306;18.926;2023-04-03T20:25:16;14.27;;;7.05;;
41623;SDS011;27319;50.306;18.926;2023-04-03T20:29:19;15.82;;;7.80;;
41623;SDS011;27319;50.306;18.926;2023-04-03T20:33:21;18.35;;;8.02;;
41623;SDS011;27319;50.306;18.926;2023-04-03T20:37:21;16.45;;;7.47;;
41623;SDS011;27319;50.306;18.926;2023-04-03T20:41:22;14.68;;;7.00;;
41623;SDS011;27319;50.306;18.926;2023-04-03T20:45:22;15.73;;;6.75;;
41623;SDS011;27319;50.306;18.926;2023-04-03T20:49:23;14.57;;;6.95;;
41623;SDS011;27319;50.306;18.926;2023-04-03T20:52:25;14.23;;;7.55;;
41623;SDS011;27319;50.306;18.926;2023-04-03T20:56:28;14.20;;;6.72;;
41623;SDS011;27319;50.306;18.926;2023-04-03T21:00:27;18.48;;;8.48;;
41623;SDS011;27319;50.306;18.926;2023-04-03T21:04:05;12.30;;;6.43;;
41623;SDS011;27319;50.306;18.926;2023-04-03T21:22:27;12.93;;;6.90;;
41623;SDS011;27319;50.306;18.926;2023-04-03T21:26:28;14.73;;;6.95;;
41623;SDS011;27319;50.306;18.926;2023-04-03T21:30:28;17.98;;;8.95;;
41623;SDS011;27319;50.306;18.926;2023-04-03T21:34:29;14.68;;;6.65;;
41623;SDS011;27319;50.306;18.926;2023-04-03T21:38:30;16.98;;;7.07;;
41623;SDS011;27319;50.306;18.926;2023-04-03T21:42:30;16.08;;;6.55;;
41623;SDS011;27319;50.306;18.926;2023-04-03T21:46:34;16.23;;;6.63;;
41623;SDS011;27319;50.306;18.926;2023-04-03T21:50:35;17.00;;;7.78;;
41623;SDS011;27319;50.306;18.926;2023-04-03T21:54:41;15.73;;;7.50;;
41623;SDS011;27319;50.306;18.926;2023-04-03T21:58:42;13.85;;;6.68;;
41623;SDS011;27319;50.306;18.926;2023-04-03T22:02:43;20.73;;;9.60;;
41623;SDS011;27319;50.306;18.926;2023-04-03T22:05:44;15.80;;;7.38;;
41623;SDS011;27319;50.306;18.926;2023-04-03T22:08:45;17.63;;;7.53;;
41623;SDS011;27319;50.306;18.926;2023-04-03T22:12:46;15.85;;;7.32;;
41623;SDS011;27319;50.306;18.926;2023-04-03T22:16:47;16.35;;;8.02;;
41623;SDS011;27319;50.306;18.926;2023-04-03T22:20:47;14.13;;;6.80;;
41623;SDS011;27319;50.306;18.926;2023-04-03T22:24:48;15.35;;;7.55;;
41623;SDS011;27319;50.306;18.926;2023-04-03T22:28:49;15.15;;;7.28;;
41623;SDS011;27319;50.306;18.926;2023-04-03T22:32:50;16.45;;;7.25;;
41623;SDS011;27319;50.306;18.926;2023-04-03T22:36:51;16.75;;;7.63;;
41623;SDS011;27319;50.306;18.926;2023-04-03T22:40:58;12.30;;;5.97;;
41623;SDS011;27319;50.306;18.926;2023-04-03T22:44:55;17.38;;;7.13;;
41623;SDS011;27319;50.306;18.926;2023-04-03T22:48:56;16.65;;;6.85;;
41623;SDS011;27319;50.306;18.926;2023-04-03T22:52:57;16.65;;;7.57;;
41623;SDS011;27319;50.306;18.926;2023-04-03T22:56:58;12.82;;;5.93;;
41623;SDS011;27319;50.306;18.926;2023-04-03T23:01:06;14.32;;;7.07;;
41623;SDS011;27319;50.306;18.926;2023-04-03T23:04:08;14.27;;;6.43;;
41623;SDS011;27319;50.306;18.926;2023-04-03T23:08:09;19.02;;;7.60;;
41623;SDS011;27319;50.306;18.926;2023-04-03T23:12:09;14.07;;;7.22;;
41623;SDS011;27319;50.306;18.926;2023-04-03T23:16:10;16.05;;;7.05;;
41623;SDS011;27319;50.306;18.926;2023-04-03T23:20:11;16.95;;;7.25;;
41623;SDS011;27319;50.306;18.926;2023-04-03T23:24:12;17.48;;;6.70;;
41623;SDS011;27319;50.306;18.926;2023-04-03T23:28:12;13.70;;;6.82;;
41623;SDS011;27319;50.306;18.926;2023-04-03T23:32:13;20.70;;;6.90;;
41623;SDS011;27319;50.306;18.926;2023-04-03T23:36:14;14.77;;;5.28;;
41623;SDS011;27319;50.306;18.926;2023-04-03T23:40:14;12.18;;;5.70;;
41623;SDS011;27319;50.306;18.926;2023-04-03T23:44:15;15.45;;;5.40;;
41623;SDS011;27319;50.306;18.926;2023-04-03T23:48:16;14.50;;;5.18;;
41623;SDS011;27319;50.306;18.926;2023-04-03T23:52:17;14.23;;;4.70;;
41623;SDS011;27319;50.306;18.926;2023-04-03T23:56:18;10.10;;;4.68;;
